sensor_id;sensor_type;location;lat;lon;timestamp;P1;durP1;ratioP1;P2;durP2;ratioP2
16430;SDS011;8325;49.284;7.238;2023-09-19T04:00:31;2.92;;;1.70;;
16430;SDS011;8325;49.284;7.238;2023-09-19T04:04:43;5.32;;;2.08;;
16430;SDS011;8325;49.284;7.238;2023-09-19T04:08:55;2.53;;;1.77;;
16430;SDS011;8325;49.284;7.238;2023-09-19T04:13:08;3.78;;;2.00;;
16430;SDS011;8325;49.284;7.238;2023-09-19T04:17:20;6.53;;;2.03;;
16430;SDS011;8325;49.284;7.238;2023-09-19T04:21:32;4.47;;;2.10;;
16430;SDS011;8325;49.284;7.238;2023-09-19T04:25:43;4.18;;;2.20;;
16430;SDS011;8325;49.284;7.238;2023-09-19T04:29:55;4.80;;;2.08;;
16430;SDS011;8325;49.284;7.238;2023-09-19T04:34:10;4.75;;;2.15;;
16430;SDS011;8325;49.284;7.238;2023-09-19T04:38:22;4.38;;;2.05;;
16430;SDS011;8325;49.284;7.238;2023-09-19T04:42:34;4.32;;;2.45;;
16430;SDS011;8325;49.284;7.238;2023-09-19T04:46:46;4.38;;;2.28;;
16430;SDS011;8325;49.284;7.238;2023-09-19T04:50:58;5.53;;;1.95;;
16430;SDS011;8325;49.284;7.238;2023-09-19T04:59:28;6.28;;;2.30;;
16430;SDS011;8325;49.284;7.238;2023-09-19T05:03:40;7.25;;;1.95;;
16430;SDS011;8325;49.284;7.238;2023-09-19T05:07:52;4.45;;;2.13;;
16430;SDS011;8325;49.284;7.238;2023-09-19T05:12:07;4.05;;;2.25;;
16430;SDS011;8325;49.284;7.238;2023-09-19T05:16:21;5.93;;;1.88;;
16430;SDS011;8325;49.284;7.238;2023-09-19T05:20:34;4.15;;;3.15;;
16430;SDS011;8325;49.284;7.238;2023-09-19T05:24:47;2.60;;;1.80;;
16430;SDS011;8325;49.284;7.238;2023-09-19T05:28:59;3.63;;;1.98;;
16430;SDS011;8325;49.284;7.238;2023-09-19T05:33:12;4.60;;;1.85;;
16430;SDS011;8325;49.284;7.238;2023-09-19T05:37:24;4.75;;;2.50;;
16430;SDS011;8325;49.284;7.238;2023-09-19T05:41:37;9.55;;;2.22;;
16430;SDS011;8325;49.284;7.238;2023-09-19T05:45:51;4.15;;;2.28;;
16430;SDS011;8325;49.284;7.238;2023-09-19T05:50:03;6.88;;;2.22;;
16430;SDS011;8325;49.284;7.238;2023-09-19T05:54:16;3.75;;;2.05;;
16430;SDS011;8325;49.284;7.238;2023-09-19T05:58:31;3.80;;;1.90;;
16430;SDS011;8325;49.284;7.238;2023-09-19T06:02:42;3.83;;;2.40;;
16430;SDS011;8325;49.284;7.238;2023-09-19T06:06:56;4.00;;;2.30;;
16430;SDS011;8325;49.284;7.238;2023-09-19T06:11:07;5.32;;;2.20;;
16430;SDS011;8325;49.284;7.238;2023-09-19T06:15:20;2.90;;;1.77;;
16430;SDS011;8325;49.284;7.238;2023-09-19T06:19:35;4.47;;;1.98;;
16430;SDS011;8325;49.284;7.238;2023-09-19T06:23:47;4.45;;;2.20;;
16430;SDS011;8325;49.284;7.238;2023-09-19T06:27:59;2.90;;;2.03;;
16430;SDS011;8325;49.284;7.238;2023-09-19T06:32:10;6.60;;;2.00;;
16430;SDS011;8325;49.284;7.238;2023-09-19T06:36:22;4.50;;;1.98;;
16430;SDS011;8325;49.284;7.238;2023-09-19T06:40:34;3.90;;;2.08;;
16430;SDS011;8325;49.284;7.238;2023-09-19T06:44:46;5.65;;;1.75;;
16430;SDS011;8325;49.284;7.238;2023-09-19T06:48:57;2.58;;;1.70;;
16430;SDS011;8325;49.284;7.238;2023-09-19T06:53:09;4.43;;;1.75;;
16430;SDS011;8325;49.284;7.238;2023-09-19T06:57:21;5.25;;;2.28;;
16430;SDS011;8325;49.284;7.238;2023-09-19T07:01:33;5.20;;;2.47;;
16430;SDS011;8325;49.284;7.238;2023-09-19T07:05:46;4.03;;;1.60;;
16430;SDS011;8325;49.284;7.238;2023-09-19T07:09:59;5.80;;;2.10;;
16430;SDS011;8325;49.284;7.238;2023-09-19T07:14:10;3.03;;;1.60;;
16430;SDS011;8325;49.284;7.238;2023-09-19T07:18:23;8.18;;;2.20;;
16430;SDS011;8325;49.284;7.238;2023-09-19T07:22:34;5.60;;;2.03;;
16430;SDS011;8325;49.284;7.238;2023-09-19T07:26:47;5.10;;;1.90;;
16430;SDS011;8325;49.284;7.238;2023-09-19T07:31:01;3.95;;;1.80;;
16430;SDS011;8325;49.284;7.238;2023-09-19T07:35:14;2.83;;;1.73;;
16430;SDS011;8325;49.284;7.238;2023-09-19T07:39:26;4.78;;;1.45;;
16430;SDS011;8325;49.284;7.238;2023-09-19T07:43:38;4.20;;;1.63;;
16430;SDS011;8325;49.284;7.238;2023-09-19T07:47:52;6.88;;;1.98;;
16430;SDS011;8325;49.284;7.238;2023-09-19T07:52:04;4.55;;;2.30;;
16430;SDS011;8325;49.284;7.238;2023-09-19T07:56:15;4.72;;;1.75;;
16430;SDS011;8325;49.284;7.238;2023-09-19T08:00:29;8.98;;;2.30;;
16430;SDS011;8325;49.284;7.238;2023-09-19T08:04:42;5.70;;;1.60;;
16430;SDS011;8325;49.284;7.238;2023-09-19T08:08:54;9.18;;;2.10;;
16430;SDS011;8325;49.284;7.238;2023-09-19T08:13:06;5.05;;;1.85;;
16430;SDS011;8325;49.284;7.238;2023-09-19T08:17:22;3.53;;;1.60;;
16430;SDS011;8325;49.284;7.238;2023-09-19T08:21:37;5.70;;;1.80;;
16430;SDS011;8325;49.284;7.238;2023-09-19T08:25:48;3.90;;;1.70;;
16430;SDS011;8325;49.284;7.238;2023-09-19T08:30:00;3.80;;;1.77;;
16430;SDS011;8325;49.284;7.238;2023-09-19T08:34:11;8.38;;;2.53;;
16430;SDS011;8325;49.284;7.238;2023-09-19T08:38:23;7.05;;;3.15;;
16430;SDS011;8325;49.284;7.238;2023-09-19T08:42:47;5.20;;;2.10;;
16430;SDS011;8325;49.284;7.238;2023-09-19T08:47:05;9.18;;;1.77;;
16430;SDS011;8325;49.284;7.238;2023-09-19T08:51:26;3.50;;;1.60;;
16430;SDS011;8325;49.284;7.238;2023-09-19T08:55:57;4.50;;;1.50;;
16430;SDS011;8325;49.284;7.238;2023-09-19T09:05:45;6.68;;;1.70;;
16430;SDS011;8325;49.284;7.238;2023-09-19T09:09:58;7.35;;;1.80;;
16430;SDS011;8325;49.284;7.238;2023-09-19T09:14:10;3.42;;;1.40;;
16430;SDS011;8325;49.284;7.238;2023-09-19T09:18:22;5.65;;;1.50;;
16430;SDS011;8325;49.284;7.238;2023-09-19T09:22:34;5.00;;;2.10;;
16430;SDS011;8325;49.284;7.238;2023-09-19T09:26:47;3.63;;;1.80;;
16430;SDS011;8325;49.284;7.238;2023-09-19T09:31:01;3.97;;;1.40;;
16430;SDS011;8325;49.284;7.238;2023-09-19T09:35:21;5.00;;;1.60;;
16430;SDS011;8325;49.284;7.238;2023-09-19T09:39:32;4.47;;;1.63;;
16430;SDS011;8325;49.284;7.238;2023-09-19T09:43:45;4.10;;;1.60;;
16430;SDS011;8325;49.284;7.238;2023-09-19T09:48:00;4.70;;;1.67;;
16430;SDS011;8325;49.284;7.238;2023-09-19T09:52:15;5.28;;;2.33;;
16430;SDS011;8325;49.284;7.238;2023-09-19T09:56:31;5.35;;;1.60;;
16430;SDS011;8325;49.284;7.238;2023-09-19T10:00:52;3.13;;;1.42;;
16430;SDS011;8325;49.284;7.238;2023-09-19T10:05:12;3.58;;;1.27;;
16430;SDS011;8325;49.284;7.238;2023-09-19T10:09:46;3.67;;;1.38;;
16430;SDS011;8325;49.284;7.238;2023-09-19T10:14:02;3.67;;;1.33;;
16430;SDS011;8325;49.284;7.238;2023-09-19T10:18:21;3.90;;;1.60;;
16430;SDS011;8325;49.284;7.238;2023-09-19T10:22:35;4.63;;;1.50;;
16430;SDS011;8325;49.284;7.238;2023-09-19T10:26:48;2.78;;;1.65;;
16430;SDS011;8325;49.284;7.238;2023-09-19T10:31:02;3.80;;;1.58;;
16430;SDS011;8325;49.284;7.238;2023-09-19T10:35:14;4.85;;;1.70;;
16430;SDS011;8325;49.284;7.238;2023-09-19T10:39:27;5.13;;;1.55;;
16430;SDS011;8325;49.284;7.238;2023-09-19T10:43:42;4.40;;;1.35;;
16430;SDS011;8325;49.284;7.238;2023-09-19T10:47:59;3.33;;;1.52;;
16430;SDS011;8325;49.284;7.238;2023-09-19T10:52:15;4.22;;;1.75;;
16430;SDS011;8325;49.284;7.238;2023-09-19T10:56:35;5.63;;;1.40;;
16430;SDS011;8325;49.284;7.238;2023-09-19T11:00:58;1.80;;;1.35;;
16430;SDS011;8325;49.284;7.238;2023-09-19T11:05:23;1.75;;;1.10;;
16430;SDS011;8325;49.284;7.238;2023-09-19T11:09:45;3.50;;;1.25;;
16430;SDS011;8325;49.284;7.238;2023-09-19T11:14:47;2.42;;;1.30;;
16430;SDS011;8325;49.284;7.238;2023-09-19T11:27:24;1.55;;;1.17;;
16430;SDS011;8325;49.284;7.238;2023-09-19T11:31:41;1.58;;;1.27;;
16430;SDS011;8325;49.284;7.238;2023-09-19T11:36:02;3.50;;;1.15;;
16430;SDS011;8325;49.284;7.238;2023-09-19T11:40:26;3.45;;;1.20;;
16430;SDS011;8325;49.284;7.238;2023-09-19T11:44:39;2.58;;;1.13;;
16430;SDS011;8325;49.284;7.238;2023-09-19T11:48:52;2.13;;;1.20;;
16430;SDS011;8325;49.284;7.238;2023-09-19T11:53:03;2.72;;;1.10;;
16430;SDS011;8325;49.284;7.238;2023-09-19T11:57:20;1.70;;;1.15;;
16430;SDS011;8325;49.284;7.238;2023-09-19T12:01:32;1.02;;;0.95;;
16430;SDS011;8325;49.284;7.238;2023-09-19T12:05:46;1.30;;;1.10;;
16430;SDS011;8325;49.284;7.238;2023-09-19T12:10:02;2.00;;;1.20;;
16430;SDS011;8325;49.284;7.238;2023-09-19T12:14:22;2.70;;;1.13;;
16430;SDS011;8325;49.284;7.238;2023-09-19T12:18:37;2.47;;;1.05;;
16430;SDS011;8325;49.284;7.238;2023-09-19T12:22:49;1.98;;;1.42;;
16430;SDS011;8325;49.284;7.238;2023-09-19T12:27:05;1.77;;;0.90;;
16430;SDS011;8325;49.284;7.238;2023-09-19T12:31:18;3.13;;;1.30;;
16430;SDS011;8325;49.284;7.238;2023-09-19T12:35:31;2.80;;;0.98;;
16430;SDS011;8325;49.284;7.238;2023-09-19T12:39:47;1.85;;;1.10;;
16430;SDS011;8325;49.284;7.238;2023-09-19T12:44:05;3.58;;;1.20;;
16430;SDS011;8325;49.284;7.238;2023-09-19T12:48:24;1.58;;;1.40;;
16430;SDS011;8325;49.284;7.238;2023-09-19T12:52:45;2.65;;;1.10;;
16430;SDS011;8325;49.284;7.238;2023-09-19T12:57:01;3.60;;;1.20;;
16430;SDS011;8325;49.284;7.238;2023-09-19T13:01:16;1.90;;;1.23;;
16430;SDS011;8325;49.284;7.238;2023-09-19T13:06:11;2.72;;;1.20;;
16430;SDS011;8325;49.284;7.238;2023-09-19T13:10:06;2.97;;;1.00;;
16430;SDS011;8325;49.284;7.238;2023-09-19T13:14:21;2.05;;;1.10;;
16430;SDS011;8325;49.284;7.238;2023-09-19T13:18:42;2.72;;;0.90;;
16430;SDS011;8325;49.284;7.238;2023-09-19T13:22:58;1.80;;;1.10;;
16430;SDS011;8325;49.284;7.238;2023-09-19T13:27:11;2.42;;;1.25;;
16430;SDS011;8325;49.284;7.238;2023-09-19T13:31:22;2.45;;;1.33;;
16430;SDS011;8325;49.284;7.238;2023-09-19T13:35:35;1.27;;;1.05;;
16430;SDS011;8325;49.284;7.238;2023-09-19T13:39:49;1.30;;;0.95;;
16430;SDS011;8325;49.284;7.238;2023-09-19T13:44:01;1.52;;;1.02;;
16430;SDS011;8325;49.284;7.238;2023-09-19T13:48:12;2.70;;;0.93;;
16430;SDS011;8325;49.284;7.238;2023-09-19T13:52:24;3.60;;;1.00;;
16430;SDS011;8325;49.284;7.238;2023-09-19T13:56:39;3.90;;;1.27;;
16430;SDS011;8325;49.284;7.238;2023-09-19T14:00:51;3.83;;;0.95;;
16430;SDS011;8325;49.284;7.238;2023-09-19T14:05:06;1.85;;;1.23;;
16430;SDS011;8325;49.284;7.238;2023-09-19T14:09:18;3.85;;;1.10;;
16430;SDS011;8325;49.284;7.238;2023-09-19T14:13:30;0.90;;;0.90;;
16430;SDS011;8325;49.284;7.238;2023-09-19T14:17:42;0.93;;;0.80;;
16430;SDS011;8325;49.284;7.238;2023-09-19T14:21:56;2.20;;;0.98;;
16430;SDS011;8325;49.284;7.238;2023-09-19T14:26:07;1.83;;;0.90;;
16430;SDS011;8325;49.284;7.238;2023-09-19T14:30:20;2.00;;;1.10;;
16430;SDS011;8325;49.284;7.238;2023-09-19T14:34:33;3.17;;;1.00;;
16430;SDS011;8325;49.284;7.238;2023-09-19T14:38:44;2.33;;;0.85;;
16430;SDS011;8325;49.284;7.238;2023-09-19T14:42:56;1.20;;;0.98;;
16430;SDS011;8325;49.284;7.238;2023-09-19T14:47:07;1.98;;;1.45;;
16430;SDS011;8325;49.284;7.238;2023-09-19T14:51:19;2.10;;;1.10;;
16430;SDS011;8325;49.284;7.238;2023-09-19T14:55:31;3.13;;;1.10;;
16430;SDS011;8325;49.284;7.238;2023-09-19T14:59:46;2.55;;;1.20;;
16430;SDS011;8325;49.284;7.238;2023-09-19T15:03:58;1.60;;;1.10;;
16430;SDS011;8325;49.284;7.238;2023-09-19T15:08:12;1.40;;;0.90;;
16430;SDS011;8325;49.284;7.238;2023-09-19T15:12:24;2.78;;;1.08;;
16430;SDS011;8325;49.284;7.238;2023-09-19T15:16:35;2.17;;;1.10;;
16430;SDS011;8325;49.284;7.238;2023-09-19T15:20:47;1.38;;;1.27;;
16430;SDS011;8325;49.284;7.238;2023-09-19T15:25:00;2.60;;;1.00;;
16430;SDS011;8325;49.284;7.238;2023-09-19T15:29:13;0.90;;;0.90;;
16430;SDS011;8325;49.284;7.238;2023-09-19T15:33:25;1.38;;;1.10;;
16430;SDS011;8325;49.284;7.238;2023-09-19T15:37:39;1.85;;;1.10;;
16430;SDS011;8325;49.284;7.238;2023-09-19T15:41:51;2.25;;;1.30;;
16430;SDS011;8325;49.284;7.238;2023-09-19T15:46:03;1.30;;;1.10;;
16430;SDS011;8325;49.284;7.238;2023-09-19T15:50:15;2.63;;;1.30;;
16430;SDS011;8325;49.284;7.238;2023-09-19T15:54:27;1.90;;;1.10;;
16430;SDS011;8325;49.284;7.238;2023-09-19T15:58:45;2.35;;;1.10;;
16430;SDS011;8325;49.284;7.238;2023-09-19T16:02:57;1.55;;;0.90;;
16430;SDS011;8325;49.284;7.238;2023-09-19T16:07:10;1.40;;;1.30;;
16430;SDS011;8325;49.284;7.238;2023-09-19T16:11:22;1.92;;;1.25;;
16430;SDS011;8325;49.284;7.238;2023-09-19T16:15:39;1.60;;;1.00;;
16430;SDS011;8325;49.284;7.238;2023-09-19T16:19:52;1.50;;;0.98;;
16430;SDS011;8325;49.284;7.238;2023-09-19T16:24:06;0.80;;;0.80;;
16430;SDS011;8325;49.284;7.238;2023-09-19T16:28:20;1.38;;;1.02;;
16430;SDS011;8325;49.284;7.238;2023-09-19T16:32:33;1.33;;;0.85;;
16430;SDS011;8325;49.284;7.238;2023-09-19T16:36:45;1.02;;;0.88;;
16430;SDS011;8325;49.284;7.238;2023-09-19T16:40:57;1.77;;;0.95;;
16430;SDS011;8325;49.284;7.238;2023-09-19T16:45:10;1.10;;;1.00;;
16430;SDS011;8325;49.284;7.238;2023-09-19T16:49:22;2.33;;;1.00;;
16430;SDS011;8325;49.284;7.238;2023-09-19T16:53:34;1.05;;;0.90;;
16430;SDS011;8325;49.284;7.238;2023-09-19T16:57:46;2.42;;;1.15;;
16430;SDS011;8325;49.284;7.238;2023-09-19T17:01:58;1.17;;;0.90;;
16430;SDS011;8325;49.284;7.238;2023-09-19T17:06:14;1.20;;;1.00;;
16430;SDS011;8325;49.284;7.238;2023-09-19T17:10:30;1.42;;;1.27;;
16430;SDS011;8325;49.284;7.238;2023-09-19T17:14:45;1.42;;;1.08;;
16430;SDS011;8325;49.284;7.238;2023-09-19T17:18:57;1.65;;;1.05;;
16430;SDS011;8325;49.284;7.238;2023-09-19T17:23:09;0.82;;;0.82;;
16430;SDS011;8325;49.284;7.238;2023-09-19T17:27:20;2.25;;;1.15;;
16430;SDS011;8325;49.284;7.238;2023-09-19T17:31:32;2.53;;;1.60;;
16430;SDS011;8325;49.284;7.238;2023-09-19T17:35:44;0.85;;;0.85;;
16430;SDS011;8325;49.284;7.238;2023-09-19T17:39:56;2.15;;;1.20;;
16430;SDS011;8325;49.284;7.238;2023-09-19T17:44:07;1.10;;;1.00;;
16430;SDS011;8325;49.284;7.238;2023-09-19T17:48:23;0.90;;;0.82;;
16430;SDS011;8325;49.284;7.238;2023-09-19T17:52:34;2.60;;;0.98;;
16430;SDS011;8325;49.284;7.238;2023-09-19T17:56:46;2.10;;;1.00;;
16430;SDS011;8325;49.284;7.238;2023-09-19T18:01:06;2.40;;;1.48;;
16430;SDS011;8325;49.284;7.238;2023-09-19T18:05:20;2.72;;;1.33;;
16430;SDS011;8325;49.284;7.238;2023-09-19T18:09:32;4.07;;;1.00;;
16430;SDS011;8325;49.284;7.238;2023-09-19T18:13:45;3.03;;;1.20;;
16430;SDS011;8325;49.284;7.238;2023-09-19T18:17:59;2.20;;;1.70;;
16430;SDS011;8325;49.284;7.238;2023-09-19T18:22:11;1.73;;;1.20;;
16430;SDS011;8325;49.284;7.238;2023-09-19T18:26:23;3.35;;;1.45;;
16430;SDS011;8325;49.284;7.238;2023-09-19T18:30:34;5.32;;;3.08;;
16430;SDS011;8325;49.284;7.238;2023-09-19T18:34:48;2.20;;;1.30;;
16430;SDS011;8325;49.284;7.238;2023-09-19T18:39:00;2.50;;;1.55;;
16430;SDS011;8325;49.284;7.238;2023-09-19T18:43:11;2.33;;;1.42;;
16430;SDS011;8325;49.284;7.238;2023-09-19T18:47:23;1.20;;;1.10;;
16430;SDS011;8325;49.284;7.238;2023-09-19T18:51:38;1.40;;;1.10;;
16430;SDS011;8325;49.284;7.238;2023-09-19T18:56:01;1.67;;;1.05;;
16430;SDS011;8325;49.284;7.238;2023-09-19T19:00:17;3.63;;;1.20;;
16430;SDS011;8325;49.284;7.238;2023-09-19T19:04:36;1.38;;;1.08;;
16430;SDS011;8325;49.284;7.238;2023-09-19T19:08:50;2.15;;;1.05;;
16430;SDS011;8325;49.284;7.238;2023-09-19T19:13:03;1.20;;;1.10;;
16430;SDS011;8325;49.284;7.238;2023-09-19T19:17:15;1.48;;;1.13;;
16430;SDS011;8325;49.284;7.238;2023-09-19T19:21:27;1.63;;;1.20;;
16430;SDS011;8325;49.284;7.238;2023-09-19T19:25:45;1.40;;;1.30;;
16430;SDS011;8325;49.284;7.238;2023-09-19T19:30:01;1.30;;;1.15;;
16430;SDS011;8325;49.284;7.238;2023-09-19T19:34:13;1.17;;;1.08;;
16430;SDS011;8325;49.284;7.238;2023-09-19T19:38:24;2.33;;;1.05;;
16430;SDS011;8325;49.284;7.238;2023-09-19T19:42:37;2.47;;;1.00;;
16430;SDS011;8325;49.284;7.238;2023-09-19T19:46:48;1.60;;;1.50;;
16430;SDS011;8325;49.284;7.238;2023-09-19T19:51:04;2.10;;;1.38;;
16430;SDS011;8325;49.284;7.238;2023-09-19T19:55:19;2.67;;;1.00;;
16430;SDS011;8325;49.284;7.238;2023-09-19T19:59:34;1.65;;;1.08;;
16430;SDS011;8325;49.284;7.238;2023-09-19T20:03:46;1.30;;;1.20;;
16430;SDS011;8325;49.284;7.238;2023-09-19T20:07:58;1.92;;;1.10;;
16430;SDS011;8325;49.284;7.238;2023-09-19T20:12:09;1.92;;;1.25;;
16430;SDS011;8325;49.284;7.238;2023-09-19T20:16:21;1.83;;;1.20;;
16430;SDS011;8325;49.284;7.238;2023-09-19T20:20:33;4.70;;;1.20;;
16430;SDS011;8325;49.284;7.238;2023-09-19T20:24:44;1.63;;;1.13;;
16430;SDS011;8325;49.284;7.238;2023-09-19T20:28:58;3.13;;;1.55;;
16430;SDS011;8325;49.284;7.238;2023-09-19T20:33:10;1.88;;;1.08;;
16430;SDS011;8325;49.284;7.238;2023-09-19T20:37:25;2.00;;;1.13;;
16430;SDS011;8325;49.284;7.238;2023-09-19T20:41:37;1.98;;;1.00;;
16430;SDS011;8325;49.284;7.238;2023-09-19T20:45:48;3.78;;;1.30;;
16430;SDS011;8325;49.284;7.238;2023-09-19T20:50:00;2.20;;;1.15;;
16430;SDS011;8325;49.284;7.238;2023-09-19T20:54:18;3.22;;;1.20;;
16430;SDS011;8325;49.284;7.238;2023-09-19T20:58:30;2.08;;;1.08;;
16430;SDS011;8325;49.284;7.238;2023-09-19T21:02:42;2.17;;;1.30;;
16430;SDS011;8325;49.284;7.238;2023-09-19T21:06:56;1.67;;;1.40;;
16430;SDS011;8325;49.284;7.238;2023-09-19T21:11:25;1.63;;;1.10;;
16430;SDS011;8325;49.284;7.238;2023-09-19T21:16:27;1.40;;;1.20;;
16430;SDS011;8325;49.284;7.238;2023-09-19T21:20:39;1.27;;;1.00;;
16430;SDS011;8325;49.284;7.238;2023-09-19T21:24:51;1.20;;;1.00;;
16430;SDS011;8325;49.284;7.238;2023-09-19T21:29:05;2.20;;;1.40;;
